Time;durP1;ratioP1;P1;durP2;ratioP2;P2;SDS_P1;SDS_P2;PMS_P1;PMS_P2;Temp;Humidity;BMP_temperature;BMP_pressure;BME280_temperature;BME280_humidity;BME280_pressure;Samples;Min_cycle;Max_cycle;Signal;HPM_P1;HPM_P2
2023/03/22 00:02:21;;;;;;;;;;;;;;;8.44;100.00;100238.84;5055285;28;20019;-83
2023/03/22 00:04:48;;;;;;;;;;;;;;;8.50;100.00;100231.22;5062995;28;19934;-82
2023/03/22 00:07:13;;;;;;;;;;;;;;;8.51;100.00;100232.78;5062106;28;19909;-81
2023/03/22 00:09:40;;;;;;;;;;;;;;;8.47;100.00;100229.31;5062922;28;19962;-81
2023/03/22 00:12:07;;;;;;;;;;;;;;;8.49;100.00;100226.00;5050870;28;19952;-79
2023/03/22 00:14:32;;;;;;;;;;;;;;;8.53;100.00;100223.78;5050292;28;19908;-80
2023/03/22 00:16:58;;;;;;;;;;;;;;;8.51;100.00;100218.56;5064035;28;19923;-82
2023/03/22 00:19:25;;;;;;;;;;;;;;;8.50;100.00;100213.34;5058773;28;19943;-82
2023/03/22 00:21:52;;;;;;;;;;;;;;;8.50;100.00;100213.34;5056013;28;20301;-82
2023/03/22 00:24:19;;;;;;;;;;;;;;;8.53;100.00;100212.38;5038778;28;19913;-82
2023/03/22 00:26:46;;;;;;;;;;;;;;;8.49;100.00;100206.06;5056707;28;19909;-83
2023/03/22 00:29:12;;;;;;;;;;;;;;;8.51;100.00;100201.47;5056945;28;19909;-83
2023/03/22 00:31:37;;;;;;;;;;;;;;;8.51;100.00;100204.31;5038993;28;20235;-83
2023/03/22 00:34:04;;;;;;;;;;;;;;;8.59;100.00;100197.00;5055098;28;19954;-82
2023/03/22 00:36:30;;;;;;;;;;;;;;;8.57;100.00;100196.69;5055219;28;19959;-82
2023/03/22 00:38:56;;;;;;;;;;;;;;;8.55;100.00;100192.75;5055417;28;20266;-83
2023/03/22 00:41:23;;;;;;;;;;;;;;;8.55;100.00;100196.41;5055242;28;20314;-83
2023/03/22 00:43:49;;;;;;;;;;;;;;;8.56;100.00;100180.88;5038314;28;19913;-83
2023/03/22 00:46:14;;;;;;;;;;;;;;;8.55;100.00;100178.53;5055165;28;19987;-82
2023/03/22 00:48:41;;;;;;;;;;;;;;;8.52;100.00;100170.94;5054949;28;19958;-83
2023/03/22 00:51:07;;;;;;;;;;;;;;;8.56;100.00;100174.41;5054995;28;20344;-76
2023/03/22 00:53:35;;;;;;;;;;;;;;;8.55;100.00;100165.06;5054405;28;20397;-77
2023/03/22 00:56:06;;;;;;;;;;;;;;;8.57;100.00;100170.28;5055647;28;19914;-77
2023/03/22 00:58:32;;;;;;;;;;;;;;;8.54;100.00;100166.34;5054575;28;19913;-76
2023/03/22 01:00:58;;;;;;;;;;;;;;;8.51;100.00;100158.75;5056090;28;19909;-76
2023/03/22 01:03:23;;;;;;;;;;;;;;;8.50;100.00;100157.19;5054411;28;20278;-76
2023/03/22 01:05:50;;;;;;;;;;;;;;;8.54;100.00;100166.34;5055842;28;19928;-78
2023/03/22 01:08:16;;;;;;;;;;;;;;;8.52;100.00;100162.38;5054407;28;19908;-76
2023/03/22 01:10:43;;;;;;;;;;;;;;;8.51;100.00;100163.69;5055407;28;19980;-77
2023/03/22 01:13:13;;;;;;;;;;;;;;;8.50;100.00;100170.63;5055223;28;20024;-76
2023/03/22 01:15:38;;;;;;;;;;;;;;;8.48;100.00;100162.56;5054190;28;20353;-76
2023/03/22 01:18:04;;;;;;;;;;;;;;;8.47;100.00;100160.19;5055605;28;19909;-78
2023/03/22 01:20:29;;;;;;;;;;;;;;;8.47;100.00;100154.50;5054164;28;20006;-76
2023/03/22 01:22:55;;;;;;;;;;;;;;;8.47;100.00;100151.66;5055403;28;19915;-76
2023/03/22 01:25:22;;;;;;;;;;;;;;;8.45;100.00;100151.38;5055560;28;19915;-77
2023/03/22 01:27:47;;;;;;;;;;;;;;;8.44;100.00;100147.72;5055476;28;19958;-77
2023/03/22 01:30:13;;;;;;;;;;;;;;;8.42;100.00;100143.78;5055272;28;19991;-76
2023/03/22 01:32:39;;;;;;;;;;;;;;;8.42;100.00;100138.06;5036982;28;19916;-77
2023/03/22 01:35:05;;;;;;;;;;;;;;;8.45;100.00;100139.97;5037342;28;19912;-76
2023/03/22 01:37:31;;;;;;;;;;;;;;;8.46;100.00;100130.16;5055282;28;19948;-75
2023/03/22 01:39:57;;;;;;;;;;;;;;;8.46;100.00;100133.00;5054951;28;19913;-76
2023/03/22 01:42:25;;;;;;;;;;;;;;;8.42;100.00;100133.16;5053858;28;19966;-76
2023/03/22 01:45:09;;;;;;;;;;;;;;;8.45;100.00;100134.28;5053006;28;20431;-76
2023/03/22 01:47:35;;;;;;;;;;;;;;;8.44;100.00;100127.78;5055194;28;19991;-76
2023/03/22 01:50:02;;;;;;;;;;;;;;;8.47;100.00;100131.72;5036862;28;19916;-76
2023/03/22 01:52:27;;;;;;;;;;;;;;;8.46;100.00;100118.78;5053469;28;20408;-76
2023/03/22 01:54:53;;;;;;;;;;;;;;;8.47;100.00;100123.19;5053305;28;19908;-76
2023/03/22 01:57:20;;;;;;;;;;;;;;;8.48;100.00;100124.75;5053427;28;19959;-75
2023/03/22 01:59:52;;;;;;;;;;;;;;;8.48;100.00;100124.75;5054953;28;20334;-80
2023/03/22 02:02:18;;;;;;;;;;;;;;;8.49;100.00;100123.50;5053272;28;20338;-81
2023/03/22 02:04:49;;;;;;;;;;;;;;;8.47;100.00;100126.81;5053613;28;19909;-82
2023/03/22 02:07:24;;;;;;;;;;;;;;;8.50;100.00;100123.03;5053270;28;19913;-81
2023/03/22 02:09:50;;;;;;;;;;;;;;;8.48;100.00;100122.69;5054256;28;19923;-81
2023/03/22 02:12:24;;;;;;;;;;;;;;;8.47;100.00;100114.63;5053264;28;20370;-80
2023/03/22 02:14:50;;;;;;;;;;;;;;;8.46;100.00;100119.53;5058090;28;19909;-85
2023/03/22 02:17:34;;;;;;;;;;;;;;;8.44;100.00;100113.56;5063857;28;19934;-86
2023/03/22 02:20:02;;;;;;;;;;;;;;;8.45;100.00;100111.50;5062037;28;20080;-87
2023/03/22 02:22:28;;;;;;;;;;;;;;;8.48;100.00;100110.53;5056262;28;19913;-86
2023/03/22 02:24:55;;;;;;;;;;;;;;;8.50;100.00;100111.63;5061808;28;20282;-87
2023/03/22 02:27:39;;;;;;;;;;;;;;;8.54;100.00;100120.78;5066386;28;19920;-86
2023/03/22 02:30:05;;;;;;;;;;;;;;;8.51;100.00;100109.56;5055262;28;19916;-87
2023/03/22 02:32:34;;;;;;;;;;;;;;;8.51;100.00;100113.19;5055506;28;20305;-78
2023/03/22 02:35:06;;;;;;;;;;;;;;;8.51;100.00;100116.03;5054286;28;19916;-82
2023/03/22 02:37:46;;;;;;;;;;;;;;;8.49;100.00;100114.94;5036107;28;19916;-83
2023/03/22 02:40:24;;;;;;;;;;;;;;;8.49;100.00;100110.03;5052732;28;19908;-83
2023/03/22 02:43:29;;;;;;;;;;;;;;;8.49;100.00;100114.94;5052959;28;19908;-81
2023/03/22 02:46:16;;;;;;;;;;;;;;;8.48;100.00;100105.63;5034810;28;19909;-82
2023/03/22 02:48:45;;;;;;;;;;;;;;;8.51;100.00;100109.56;5018479;28;20342;-82
2023/03/22 02:51:31;;;;;;;;;;;;;;;8.50;100.00;100108.00;5053121;28;19995;-81
2023/03/22 02:54:04;;;;;;;;;;;;;;;8.51;100.00;100106.72;5051630;28;19916;-81
2023/03/22 02:56:30;;;;;;;;;;;;;;;8.50;100.00;100108.78;5052425;28;19924;-82
2023/03/22 02:58:58;;;;;;;;;;;;;;;8.53;100.00;100104.97;5053882;28;20013;-81
2023/03/22 03:01:28;;;;;;;;;;;;;;;8.54;100.00;100108.59;5057150;28;19913;-81
2023/03/22 03:03:56;;;;;;;;;;;;;;;8.56;100.00;100111.75;5059585;28;19909;-80
2023/03/22 03:06:24;;;;;;;;;;;;;;;8.57;100.00;100108.41;5055551;28;19913;-82
2023/03/22 03:08:52;;;;;;;;;;;;;;;8.60;100.00;100109.50;5054443;28;19909;-83
2023/03/22 03:11:18;;;;;;;;;;;;;;;8.60;100.00;100115.22;5054412;28;20283;-84
2023/03/22 03:13:46;;;;;;;;;;;;;;;8.62;100.00;100116.28;5037416;28;19912;-83
2023/03/22 03:16:16;;;;;;;;;;;;;;;8.66;100.00;100113.25;5053084;28;19919;-83
2023/03/22 03:18:53;;;;;;;;;;;;;;;8.68;100.00;100110.72;5053893;28;19908;-83
2023/03/22 03:21:41;;;;;;;;;;;;;;;8.68;100.00;100114.34;5052701;28;19930;-84
2023/03/22 03:24:13;;;;;;;;;;;;;;;8.68;100.00;100116.41;5054544;28;19970;-84
2023/03/22 03:26:45;;;;;;;;;;;;;;;8.66;100.00;100107.56;5057821;28;19919;-82
2023/03/22 03:29:14;;;;;;;;;;;;;;;8.66;100.00;100116.88;5055636;28;19908;-83
2023/03/22 03:31:46;;;;;;;;;;;;;;;8.66;100.00;100122.59;5053388;28;19913;-82
2023/03/22 03:34:20;;;;;;;;;;;;;;;8.67;100.00;100126.22;5053232;28;19994;-83
2023/03/22 03:36:49;;;;;;;;;;;;;;;8.68;100.00;100134.28;5053887;28;20259;-83
2023/03/22 03:39:14;;;;;;;;;;;;;;;8.71;100.00;100138.22;5051995;28;20380;-83
2023/03/22 03:41:41;;;;;;;;;;;;;;;8.75;100.00;100138.84;5051990;28;19909;-82
2023/03/22 03:44:07;;;;;;;;;;;;;;;8.79;100.00;100139.47;5053450;28;19909;-81
2023/03/22 03:46:34;;;;;;;;;;;;;;;8.81;100.00;100136.91;5052341;28;19915;-82
2023/03/22 03:48:59;;;;;;;;;;;;;;;8.77;100.00;100145.63;5051592;28;20272;-81
2023/03/22 03:51:25;;;;;;;;;;;;;;;8.78;100.00;100137.88;5053226;28;19960;-81
2023/03/22 03:53:50;;;;;;;;;;;;;;;8.76;100.00;100152.59;5051290;28;19929;-81
2023/03/22 03:56:15;;;;;;;;;;;;;;;8.75;100.00;100148.19;5052791;28;19913;-80
2023/03/22 03:58:42;;;;;;;;;;;;;;;8.74;100.00;100145.81;5051606;28;19908;-80
2023/03/22 04:01:08;;;;;;;;;;;;;;;8.71;100.00;100150.41;5051929;28;19913;-81
2023/03/22 04:03:33;;;;;;;;;;;;;;;8.70;100.00;100145.22;5052960;28;20365;-81
2023/03/22 04:06:00;;;;;;;;;;;;;;;8.67;100.00;100152.66;5052972;28;20368;-81
2023/03/22 04:08:26;;;;;;;;;;;;;;;8.67;100.00;100155.50;5034836;28;19908;-81
2023/03/22 04:10:52;;;;;;;;;;;;;;;8.66;100.00;100151.06;5051491;28;19920;-80
2023/03/22 04:13:23;;;;;;;;;;;;;;;8.64;100.00;100145.09;5049953;28;19912;-81
2023/03/22 04:15:56;;;;;;;;;;;;;;;8.64;100.00;100138.59;5051660;28;20266;-81
2023/03/22 04:18:22;;;;;;;;;;;;;;;8.58;100.00;100140.53;5051525;28;20366;-81
2023/03/22 04:20:48;;;;;;;;;;;;;;;8.53;100.00;100130.59;5051630;28;19924;-81
2023/03/22 04:23:14;;;;;;;;;;;;;;;8.50;100.00;100134.41;5051362;28;19909;-80
2023/03/22 04:25:40;;;;;;;;;;;;;;;8.49;100.00;100134.88;5034626;28;20018;-81
2023/03/22 04:28:06;;;;;;;;;;;;;;;8.46;100.00;100127.31;5051491;28;19909;-81
2023/03/22 04:30:34;;;;;;;;;;;;;;;8.38;100.00;100126.88;5052952;28;20251;-81
2023/03/22 04:33:05;;;;;;;;;;;;;;;8.33;100.00;100133.22;5051376;28;19915;-83
2023/03/22 04:35:33;;;;;;;;;;;;;;;8.27;100.00;100133.09;5052798;28;19932;-83
2023/03/22 04:38:00;;;;;;;;;;;;;;;8.24;100.00;100138.97;5051363;28;19960;-83
2023/03/22 04:40:27;;;;;;;;;;;;;;;8.18;100.00;100138.81;5051286;28;19912;-84
2023/03/22 04:42:56;;;;;;;;;;;;;;;8.11;100.00;100133.47;5051322;28;20023;-82
2023/03/22 04:45:23;;;;;;;;;;;;;;;8.10;100.00;100120.50;5051462;28;19916;-81
2023/03/22 04:47:49;;;;;;;;;;;;;;;8.08;100.00;100130.75;5037291;28;19934;-83
2023/03/22 04:50:15;;;;;;;;;;;;;;;8.08;100.00;100127.91;5056237;28;20290;-82
2023/03/22 04:52:40;;;;;;;;;;;;;;;8.09;100.00;100121.75;5055952;28;20263;-82
2023/03/22 04:55:07;;;;;;;;;;;;;;;8.10;100.00;100129.03;5054557;28;20358;-82
2023/03/22 04:57:34;;;;;;;;;;;;;;;8.07;100.00;100115.75;5056051;28;19966;-83
2023/03/22 05:00:00;;;;;;;;;;;;;;;8.04;100.00;100105.34;5055881;28;19909;-82
2023/03/22 05:02:27;;;;;;;;;;;;;;;8.03;100.00;100103.75;5055918;28;19938;-83
2023/03/22 05:04:53;;;;;;;;;;;;;;;8.00;100.00;100107.56;5055825;28;20330;-82
2023/03/22 05:07:19;;;;;;;;;;;;;;;8.00;100.00;100095.41;5055911;28;20293;-83
2023/03/22 05:09:45;;;;;;;;;;;;;;;8.02;100.00;100105.00;5054745;28;19908;-84
2023/03/22 05:12:11;;;;;;;;;;;;;;;8.03;100.00;100109.44;5054470;28;19912;-83
2023/03/22 05:14:36;;;;;;;;;;;;;;;8.05;100.00;100106.91;5054538;28;19915;-83
2023/03/22 05:17:02;;;;;;;;;;;;;;;8.09;100.00;100110.38;5054524;28;19935;-84
2023/03/22 05:19:27;;;;;;;;;;;;;;;8.11;100.00;100113.53;5056101;28;20355;-87
2023/03/22 05:21:56;;;;;;;;;;;;;;;8.12;100.00;100112.25;5054411;28;20360;-85
2023/03/22 05:24:22;;;;;;;;;;;;;;;8.15;100.00;100114.16;5063338;28;19913;-87
2023/03/22 05:26:52;;;;;;;;;;;;;;;8.18;100.00;100113.22;5066932;28;19976;-85
2023/03/22 05:29:17;;;;;;;;;;;;;;;8.26;100.00;100114.41;5075873;28;19912;-85
2023/03/22 05:31:50;;;;;;;;;;;;;;;8.28;100.00;100117.59;5060649;28;19908;-85
2023/03/22 05:34:19;;;;;;;;;;;;;;;8.30;100.00;100126.44;5061153;28;19940;-85
2023/03/22 05:36:45;;;;;;;;;;;;;;;8.34;100.00;100120.56;5072071;28;19916;-85
2023/03/22 05:39:13;;;;;;;;;;;;;;;8.34;100.00;100118.50;5038063;28;19917;-78
2023/03/22 05:41:39;;;;;;;;;;;;;;;8.35;100.00;100125.78;5055388;28;19908;-80
2023/03/22 05:44:06;;;;;;;;;;;;;;;8.40;100.00;100127.19;5041832;28;20066;-77
2023/03/22 05:46:31;;;;;;;;;;;;;;;8.48;100.00;100133.31;5034614;28;20008;-78
2023/03/22 05:48:56;;;;;;;;;;;;;;;8.52;100.00;100131.06;5034793;28;19916;-81
2023/03/22 05:51:24;;;;;;;;;;;;;;;8.56;100.00;100123.91;5035515;28;20020;-78
2023/03/22 05:53:52;;;;;;;;;;;;;;;8.22;100.00;100067.47;5033441;28;19917;-78
2023/03/22 05:56:22;;;;;;;;;;;;;;;8.72;100.00;100132.06;5035124;28;19927;-76
2023/03/22 05:58:49;;;;;;;;;;;;;;;8.74;100.00;100125.88;5033865;28;19974;-78
2023/03/22 06:01:15;;;;;;;;;;;;;;;8.75;100.00;100130.31;5034863;28;19913;-77
2023/03/22 06:03:40;;;;;;;;;;;;;;;8.80;100.00;100123.94;5033377;28;20251;-79
2023/03/22 06:06:09;;;;;;;;;;;;;;;8.86;100.00;100124.03;5033511;28;19909;-82
2023/03/22 06:08:36;;;;;;;;;;;;;;;8.93;100.00;100118.78;5033921;28;19959;-80
2023/03/22 06:11:04;;;;;;;;;;;;;;;9.01;100.00;100119.97;5033803;28;19913;-79
2023/03/22 06:13:30;;;;;;;;;;;;;;;9.09;100.00;100126.09;5045997;28;19942;-81
2023/03/22 06:15:57;;;;;;;;;;;;;;;9.19;100.00;100128.41;5051594;28;20480;-81
2023/03/22 06:18:24;;;;;;;;;;;;;;;9.31;100.00;100120.03;5054642;28;19916;-81
2023/03/22 06:20:51;;;;;;;;;;;;;;;9.46;100.00;100124.50;5055267;28;19991;-79
2023/03/22 06:23:20;;;;;;;;;;;;;;;9.56;100.00;100123.13;5052510;28;19916;-79
2023/03/22 06:25:47;;;;;;;;;;;;;;;9.72;100.00;100126.78;5054380;28;19909;-79
2023/03/22 06:28:33;;;;;;;;;;;;;;;9.78;100.00;100119.16;5054239;28;20011;-81
2023/03/22 06:31:04;;;;;;;;;;;;;;;9.92;100.00;100124.84;5054135;28;19999;-80
2023/03/22 06:33:29;;;;;;;;;;;;;;;10.12;100.00;100121.28;5052728;28;19928;-78
2023/03/22 06:35:57;;;;;;;;;;;;;;;10.67;100.00;100115.63;5052619;28;19915;-79
2023/03/22 06:38:24;;;;;;;;;;;;;;;11.23;100.00;100111.44;5053745;28;19909;-79
2023/03/22 06:40:49;;;;;;;;;;;;;;;11.73;100.00;100106.25;5054207;28;19908;-79
2023/03/22 06:43:15;;;;;;;;;;;;;;;13.37;100.00;100119.03;5054028;28;20419;-79
2023/03/22 06:45:41;;;;;;;;;;;;;;;16.38;100.00;100093.06;5053861;28;19909;-78
2023/03/22 06:48:07;;;;;;;;;;;;;;;19.24;100.00;100101.41;5053360;28;19959;-79
2023/03/22 06:50:36;;;;;;;;;;;;;;;21.55;100.00;100100.25;5051364;28;20008;-78
2023/03/22 06:53:02;;;;;;;;;;;;;;;23.29;85.48;100107.59;5050667;28;19963;-78
2023/03/22 06:55:27;;;;;;;;;;;;;;;24.46;73.54;100114.63;5052814;28;19913;-79
2023/03/22 06:58:02;;;;;;;;;;;;;;;24.67;66.01;100120.88;5052555;28;20354;-79
2023/03/22 07:00:30;;;;;;;;;;;;;;;24.14;66.37;100116.19;5053112;28;19963;-79
2023/03/22 07:02:56;;;;;;;;;;;;;;;23.95;67.60;100115.88;5053379;28;19908;-79
2023/03/22 07:05:21;;;;;;;;;;;;;;;23.81;65.03;100123.34;5055030;28;19988;-78
2023/03/22 07:07:47;;;;;;;;;;;;;;;23.36;66.12;100115.53;5054559;28;19909;-79
2023/03/22 07:10:14;;;;;;;;;;;;;;;22.70;70.13;100104.94;5052450;28;19962;-80
2023/03/22 07:12:39;;;;;;;;;;;;;;;22.68;68.15;100112.72;5051963;28;19908;-82
2023/03/22 07:15:05;;;;;;;;;;;;;;;22.62;70.60;100104.16;5036025;28;19915;-82
2023/03/22 07:17:38;;;;;;;;;;;;;;;22.93;70.25;100110.78;5036501;28;20273;-80
2023/03/22 07:20:05;;;;;;;;;;;;;;;23.82;67.50;100113.25;5052471;28;20054;-84
2023/03/22 07:22:31;;;;;;;;;;;;;;;24.62;58.05;100122.69;5052529;28;19916;-85
2023/03/22 07:24:57;;;;;;;;;;;;;;;24.45;54.32;100119.69;5053656;28;19908;-86
2023/03/22 07:27:22;;;;;;;;;;;;;;;23.70;54.94;100120.91;5053968;28;20243;-86
2023/03/22 07:29:47;;;;;;;;;;;;;;;22.97;59.03;100113.28;5053713;28;19981;-84
2023/03/22 07:32:15;;;;;;;;;;;;;;;22.63;61.07;100105.72;5052284;28;19908;-86
2023/03/22 07:34:41;;;;;;;;;;;;;;;22.65;60.91;100097.19;5052265;28;19951;-85
2023/03/22 07:37:07;;;;;;;;;;;;;;;22.60;60.77;100097.38;5053672;28;19952;-86
2023/03/22 07:39:33;;;;;;;;;;;;;;;22.81;61.65;100095.03;5053281;28;20324;-86
2023/03/22 07:42:00;;;;;;;;;;;;;;;22.77;59.06;100101.25;5054094;28;19995;-87
2023/03/22 07:44:26;;;;;;;;;;;;;;;22.71;60.40;100091.94;5055396;28;20440;-85
2023/03/22 07:46:51;;;;;;;;;;;;;;;22.56;59.58;100099.91;5053664;28;19913;-85
2023/03/22 07:49:18;;;;;;;;;;;;;;;22.58;58.90;100095.03;5052584;28;20074;-85
2023/03/22 07:51:43;;;;;;;;;;;;;;;22.60;58.58;100089.41;5053472;28;19947;-86
2023/03/22 07:54:08;;;;;;;;;;;;;;;22.48;56.09;100100.66;5051721;28;19917;-85
2023/03/22 07:56:34;;;;;;;;;;;;;;;22.40;57.57;100099.13;5053571;28;20046;-86
2023/03/22 07:59:00;;;;;;;;;;;;;;;22.73;56.80;100091.34;5053235;28;20269;-86
2023/03/22 08:01:26;;;;;;;;;;;;;;;23.51;56.59;100088.44;5053909;28;19909;-79
2023/03/22 08:03:53;;;;;;;;;;;;;;;24.24;54.05;100089.28;5055076;28;19908;-80
2023/03/22 08:06:20;;;;;;;;;;;;;;;24.84;49.44;100097.53;5052555;28;19916;-80
2023/03/22 08:08:51;;;;;;;;;;;;;;;25.12;49.37;100099.25;5053359;28;19982;-79
2023/03/22 08:11:18;;;;;;;;;;;;;;;25.96;46.17;100093.16;5053175;28;19977;-80
2023/03/22 08:13:45;;;;;;;;;;;;;;;27.12;42.94;100088.53;5053078;28;19909;-79
2023/03/22 08:16:11;;;;;;;;;;;;;;;27.88;40.17;100084.84;5052597;28;19913;-80
2023/03/22 08:18:37;;;;;;;;;;;;;;;28.53;39.50;100083.75;5053061;28;19915;-80
2023/03/22 08:21:03;;;;;;;;;;;;;;;28.53;39.02;100071.97;5052209;28;20344;-79
2023/03/22 08:23:28;;;;;;;;;;;;;;;28.38;36.74;100073.09;5055035;28;19920;-80
2023/03/22 08:25:54;;;;;;;;;;;;;;;28.37;35.45;100070.78;5055501;28;19913;-81
2023/03/22 08:28:20;;;;;;;;;;;;;;;27.89;35.46;100065.84;5056924;28;19909;-81
2023/03/22 08:30:46;;;;;;;;;;;;;;;27.40;36.92;100075.31;5056640;28;19908;-80
2023/03/22 08:33:12;;;;;;;;;;;;;;;26.79;37.51;100076.44;5055320;28;19912;-81
2023/03/22 08:35:37;;;;;;;;;;;;;;;26.40;37.71;100080.59;5055045;28;20255;-80
2023/03/22 08:38:04;;;;;;;;;;;;;;;26.66;38.62;100079.78;5055712;28;19912;-81
2023/03/22 08:40:30;;;;;;;;;;;;;;;27.17;37.75;100076.50;5056634;28;19999;-81
2023/03/22 08:42:55;;;;;;;;;;;;;;;27.58;36.36;100077.44;5054957;28;20361;-81
2023/03/22 08:45:20;;;;;;;;;;;;;;;27.78;35.67;100074.50;5056910;28;19908;-79
2023/03/22 08:47:47;;;;;;;;;;;;;;;27.61;35.66;100070.31;5056700;28;19909;-80
2023/03/22 08:50:13;;;;;;;;;;;;;;;27.25;36.18;100064.63;5056617;28;19908;-80
2023/03/22 08:52:40;;;;;;;;;;;;;;;26.94;36.06;100061.50;5055775;28;19924;-82
2023/03/22 08:55:09;;;;;;;;;;;;;;;26.91;36.67;100062.72;5056352;28;19920;-82
2023/03/22 08:57:35;;;;;;;;;;;;;;;27.03;36.19;100063.66;5056038;28;19917;-81
2023/03/22 09:00:10;;;;;;;;;;;;;;;26.65;36.39;100048.91;5056155;28;19909;-79
2023/03/22 09:02:36;;;;;;;;;;;;;;;26.44;37.23;100054.53;5053026;28;19912;-79
2023/03/22 09:05:03;;;;;;;;;;;;;;;26.15;37.87;100054.44;5056037;28;19931;-79
2023/03/22 09:07:30;;;;;;;;;;;;;;;25.97;39.27;100053.69;5055626;28;19939;-80
2023/03/22 09:09:55;;;;;;;;;;;;;;;25.78;38.52;100053.56;5055844;28;19908;-80
2023/03/22 09:12:23;;;;;;;;;;;;;;;25.32;39.53;100054.16;5056058;28;19948;-79
2023/03/22 09:14:48;;;;;;;;;;;;;;;25.07;41.00;100059.31;5055276;28;19912;-79
2023/03/22 09:17:17;;;;;;;;;;;;;;;24.72;41.39;100057.72;5055308;28;19913;-80
2023/03/22 09:19:46;;;;;;;;;;;;;;;24.37;42.38;100051.78;5055739;28;19916;-79
2023/03/22 09:22:13;;;;;;;;;;;;;;;23.92;42.97;100049.16;5055670;28;19935;-80
2023/03/22 09:24:39;;;;;;;;;;;;;;;23.71;44.48;100044.41;5037653;28;19913;-80
2023/03/22 09:27:04;;;;;;;;;;;;;;;23.77;44.86;100047.91;5037383;28;19913;-79
2023/03/22 09:29:30;;;;;;;;;;;;;;;23.34;44.22;100045.38;5051635;28;19927;-80
2023/03/22 09:31:56;;;;;;;;;;;;;;;22.69;46.25;100038.50;5055232;28;19913;-80
2023/03/22 09:34:22;;;;;;;;;;;;;;;22.28;50.39;100028.84;5055281;28;19916;-81
2023/03/22 09:36:48;;;;;;;;;;;;;;;22.31;51.20;100030.59;5037538;28;20281;-79
2023/03/22 09:39:15;;;;;;;;;;;;;;;22.13;50.26;100025.88;5053943;28;19967;-79
2023/03/22 09:41:47;;;;;;;;;;;;;;;21.85;50.20;100031.88;5055476;28;19909;-80
2023/03/22 09:44:15;;;;;;;;;;;;;;;21.59;52.74;100030.84;5054928;28;19909;-80
2023/03/22 09:46:46;;;;;;;;;;;;;;;21.51;54.38;100021.34;5053718;28;20369;-80
2023/03/22 09:49:19;;;;;;;;;;;;;;;21.58;54.83;100028.53;5055282;28;19922;-80
2023/03/22 09:51:53;;;;;;;;;;;;;;;21.74;55.28;100021.38;5054888;28;19909;-79
2023/03/22 09:54:39;;;;;;;;;;;;;;;21.97;54.14;100021.44;5053443;28;19920;-80
2023/03/22 09:57:07;;;;;;;;;;;;;;;21.94;53.26;100010.94;5054095;28;19916;-80
2023/03/22 09:59:32;;;;;;;;;;;;;;;21.90;53.67;100010.56;5055146;28;19909;-79
2023/03/22 10:02:03;;;;;;;;;;;;;;;21.88;54.87;100005.31;5054560;28;19919;-80
2023/03/22 10:04:52;;;;;;;;;;;;;;;21.93;54.30;100009.38;5055284;28;19909;-80
2023/03/22 10:07:18;;;;;;;;;;;;;;;22.09;53.64;100002.22;5054314;28;19909;-80
2023/03/22 10:09:53;;;;;;;;;;;;;;;22.24;53.26;100004.38;5054742;28;19912;-80
2023/03/22 10:12:25;;;;;;;;;;;;;;;22.32;52.50;100008.84;5054470;28;20417;-80
2023/03/22 10:15:11;;;;;;;;;;;;;;;22.43;51.15;100007.66;5053230;28;19995;-79
2023/03/22 10:17:36;;;;;;;;;;;;;;;22.22;49.87;100010.81;5054199;28;20374;-79
2023/03/22 10:20:06;;;;;;;;;;;;;;;22.14;53.41;100001.25;5053489;28;19920;-79
2023/03/22 10:22:39;;;;;;;;;;;;;;;22.09;53.78;100005.13;5053381;28;20423;-80
2023/03/22 10:25:06;;;;;;;;;;;;;;;22.03;50.43;99990.75;5052632;28;19913;-80
2023/03/22 10:27:32;;;;;;;;;;;;;;;21.88;50.33;100002.41;5054637;28;19909;-79
2023/03/22 10:30:05;;;;;;;;;;;;;;;21.74;50.90;100000.25;5055872;28;19908;-80
2023/03/22 10:32:40;;;;;;;;;;;;;;;21.60;51.50;99999.63;5056106;28;19915;-81
2023/03/22 10:35:08;;;;;;;;;;;;;;;21.47;51.51;100002.72;5055518;28;19948;-80
2023/03/22 10:37:37;;;;;;;;;;;;;;;21.39;53.12;99999.75;5055435;28;19913;-80
2023/03/22 10:40:07;;;;;;;;;;;;;;;21.19;52.93;99992.69;5055896;28;20068;-79
2023/03/22 10:42:34;;;;;;;;;;;;;;;20.98;55.10;99989.13;5055021;28;19915;-81
2023/03/22 10:45:02;;;;;;;;;;;;;;;20.83;55.23;99985.38;5054503;28;19943;-79
2023/03/22 10:47:39;;;;;;;;;;;;;;;20.70;58.08;99989.13;5053036;28;19913;-80
2023/03/22 10:50:18;;;;;;;;;;;;;;;20.78;58.48;99987.88;5052663;28;19915;-79
2023/03/22 10:52:48;;;;;;;;;;;;;;;20.85;58.50;99995.06;5052491;28;19932;-80
2023/03/22 10:55:14;;;;;;;;;;;;;;;20.96;59.81;99993.94;5052504;28;20349;-79
2023/03/22 10:57:41;;;;;;;;;;;;;;;20.94;58.35;99979.25;5054330;28;19913;-79
2023/03/22 11:00:12;;;;;;;;;;;;;;;20.91;57.08;99972.44;5053990;28;20349;-79
2023/03/22 11:02:51;;;;;;;;;;;;;;;20.92;56.56;99976.91;5052499;28;20251;-81
2023/03/22 11:05:22;;;;;;;;;;;;;;;20.82;57.90;99978.78;5053637;28;19908;-80
2023/03/22 11:07:48;;;;;;;;;;;;;;;20.73;57.31;99979.31;5053077;28;19947;-80
2023/03/22 11:10:26;;;;;;;;;;;;;;;20.55;57.96;99965.81;5052548;28;19909;-80
2023/03/22 11:13:15;;;;;;;;;;;;;;;20.40;58.64;99961.47;5053350;28;19912;-80
2023/03/22 11:15:43;;;;;;;;;;;;;;;20.27;60.00;99952.09;5051757;28;20274;-78
2023/03/22 11:18:14;;;;;;;;;;;;;;;20.22;61.37;99956.69;5035181;28;20415;-79
2023/03/22 11:20:40;;;;;;;;;;;;;;;20.22;66.08;99953.81;5051784;28;20277;-80
2023/03/22 11:23:06;;;;;;;;;;;;;;;20.27;65.49;99946.28;5051995;28;19943;-80
2023/03/22 11:25:32;;;;;;;;;;;;;;;20.30;64.10;99943.00;5052154;28;19952;-80
2023/03/22 11:28:05;;;;;;;;;;;;;;;20.41;63.89;99944.81;5051752;28;20419;-81
2023/03/22 11:30:41;;;;;;;;;;;;;;;20.51;64.11;99933.47;5053530;28;19908;-80
2023/03/22 11:33:07;;;;;;;;;;;;;;;20.67;63.98;99924.28;5053360;28;19908;-79
2023/03/22 11:35:35;;;;;;;;;;;;;;;20.84;61.14;99926.72;5052401;28;19909;-79
2023/03/22 11:38:01;;;;;;;;;;;;;;;20.78;60.88;99923.19;5053446;28;19920;-79
2023/03/22 11:40:34;;;;;;;;;;;;;;;20.77;62.67;99918.72;5053193;28;19909;-79
2023/03/22 11:43:08;;;;;;;;;;;;;;;20.83;59.85;99921.47;5050925;28;19908;-79
2023/03/22 11:45:35;;;;;;;;;;;;;;;20.95;59.16;99920.53;5052522;28;19909;-80
2023/03/22 11:48:04;;;;;;;;;;;;;;;21.02;59.84;99916.91;5034867;28;19952;-81
2023/03/22 11:50:35;;;;;;;;;;;;;;;21.16;58.09;99909.56;5058521;28;20354;-79
2023/03/22 11:53:05;;;;;;;;;;;;;;;21.18;56.61;99909.00;5051690;28;20283;-80
2023/03/22 11:55:31;;;;;;;;;;;;;;;21.15;55.68;99902.19;5052228;28;19919;-80
2023/03/22 11:57:57;;;;;;;;;;;;;;;21.09;55.12;99897.94;5055768;28;19912;-80
2023/03/22 12:00:25;;;;;;;;;;;;;;;21.00;55.42;99901.38;5057407;28;19913;-81
2023/03/22 12:03:04;;;;;;;;;;;;;;;21.04;56.73;99878.56;5055991;28;20327;-80
2023/03/22 12:05:31;;;;;;;;;;;;;;;21.21;57.77;99887.50;5053881;28;19915;-81
2023/03/22 12:08:05;;;;;;;;;;;;;;;21.20;55.12;99897.56;5055438;28;20011;-80
2023/03/22 12:10:51;;;;;;;;;;;;;;;21.12;54.83;99888.84;5055475;28;19909;-82
2023/03/22 12:13:36;;;;;;;;;;;;;;;21.02;53.24;99878.34;5053880;28;20370;-82
2023/03/22 12:16:04;;;;;;;;;;;;;;;20.95;53.19;99887.81;5057262;28;19909;-81
2023/03/22 12:18:52;;;;;;;;;;;;;;;20.78;51.61;99888.34;5057233;28;20358;-82
2023/03/22 12:21:18;;;;;;;;;;;;;;;20.66;54.15;99884.19;5056970;28;19909;-83
2023/03/22 12:24:00;;;;;;;;;;;;;;;20.68;55.05;99887.31;5056729;28;20361;-82
2023/03/22 12:26:27;;;;;;;;;;;;;;;20.52;56.85;99854.50;5055496;28;19962;-82
2023/03/22 12:29:10;;;;;;;;;;;;;;;20.70;57.75;99878.78;5055287;28;19912;-82
2023/03/22 12:31:48;;;;;;;;;;;;;;;20.83;57.24;99878.69;5057148;28;20436;-79
2023/03/22 12:34:16;;;;;;;;;;;;;;;20.84;56.24;99868.63;5058398;28;19909;-78
2023/03/22 12:36:44;;;;;;;;;;;;;;;20.84;53.65;99871.53;5057906;28;19917;-80
2023/03/22 12:39:12;;;;;;;;;;;;;;;20.85;52.17;99873.06;5055705;28;19947;-82
2023/03/22 12:41:39;;;;;;;;;;;;;;;20.88;52.50;99865.34;5040826;28;19908;-80
2023/03/22 12:44:25;;;;;;;;;;;;;;;21.01;50.27;99865.94;5055404;28;20289;-80
2023/03/22 12:46:55;;;;;;;;;;;;;;;21.01;50.08;99873.88;5057439;28;20348;-83